Time;durP1;ratioP1;P1;durP2;ratioP2;P2;SDS_P1;SDS_P2;PMS_P1;PMS_P2;Temp;Humidity;BMP_temperature;BMP_pressure;BME280_temperature;BME280_humidity;BME280_pressure;Samples;Min_cycle;Max_cycle;Signal;HPM_P1;HPM_P2
2024/02/14 00:01:54;;;;;;;3.10;1.33;;;5.70;99.90;;;;;;5038396;28;20036;-71
2024/02/14 00:04:21;;;;;;;3.28;1.58;;;5.70;99.90;;;;;;5036828;28;20017;-71
2024/02/14 00:06:47;;;;;;;3.75;1.65;;;5.70;99.90;;;;;;5037397;28;20492;-70
2024/02/14 00:09:13;;;;;;;2.85;1.67;;;5.80;99.90;;;;;;5031130;28;20029;-70
2024/02/14 00:11:38;;;;;;;1.75;1.25;;;5.80;99.90;;;;;;5013801;28;20025;-70
2024/02/14 00:14:04;;;;;;;1.83;1.15;;;5.80;99.90;;;;;;5021565;28;20059;-70
2024/02/14 00:16:30;;;;;;;1.73;1.38;;;5.80;99.90;;;;;;5038476;28;20048;-70
2024/02/14 00:18:56;;;;;;;4.53;1.25;;;5.90;99.90;;;;;;5030314;28;20469;-70
2024/02/14 00:21:24;;;;;;;4.95;1.73;;;5.90;99.90;;;;;;5041253;28;20025;-71
2024/02/14 00:23:50;;;;;;;5.97;1.85;;;6.00;99.90;;;;;;5042558;28;20037;-71
2024/02/14 00:26:16;;;;;;;6.57;1.50;;;6.10;99.90;;;;;;5006650;28;20048;-71
2024/02/14 00:28:45;;;;;;;2.05;1.00;;;6.10;99.90;;;;;;5019924;28;20131;-71
2024/02/14 00:31:11;;;;;;;3.28;1.60;;;6.10;99.90;;;;;;5013834;28;20390;-71
2024/02/14 00:33:37;;;;;;;2.13;1.27;;;6.10;99.90;;;;;;5034813;28;20028;-71
2024/02/14 00:36:02;;;;;;;2.88;1.55;;;6.20;99.90;;;;;;5041516;28;20116;-71
2024/02/14 00:38:28;;;;;;;4.00;1.27;;;6.10;99.90;;;;;;5041320;28;20060;-71
2024/02/14 00:40:54;;;;;;;2.60;1.70;;;6.00;99.90;;;;;;5039400;28;20048;-71
2024/02/14 00:43:20;;;;;;;8.57;2.17;;;6.00;99.90;;;;;;5015738;28;20033;-71
2024/02/14 00:45:45;;;;;;;4.85;1.92;;;6.00;99.90;;;;;;5043118;28;20582;-71
2024/02/14 00:48:11;;;;;;;2.13;1.75;;;6.00;99.90;;;;;;5047972;28;20029;-71
2024/02/14 00:50:37;;;;;;;5.25;2.88;;;5.90;99.90;;;;;;5036053;28;20029;-71
2024/02/14 00:53:03;;;;;;;8.43;3.08;;;5.90;99.90;;;;;;5027193;28;20632;-71
2024/02/14 00:55:29;;;;;;;2.25;1.55;;;5.80;99.90;;;;;;5045074;28;20120;-71
2024/02/14 00:57:55;;;;;;;7.95;1.40;;;5.80;99.90;;;;;;5054202;28;20037;-71
2024/02/14 01:00:20;;;;;;;1.65;1.08;;;5.70;99.90;;;;;;5039807;28;20055;-71
2024/02/14 01:02:46;;;;;;;2.08;1.48;;;5.80;99.90;;;;;;5042001;28;20025;-71
2024/02/14 01:05:12;;;;;;;2.95;1.42;;;5.70;99.90;;;;;;5053729;28;20487;-71
2024/02/14 01:07:38;;;;;;;1.65;1.02;;;5.70;99.90;;;;;;5018755;28;20390;-71
2024/02/14 01:10:04;;;;;;;2.63;2.20;;;5.70;99.90;;;;;;5035539;28;20029;-71
2024/02/14 01:12:29;;;;;;;3.03;1.55;;;5.70;99.90;;;;;;5040344;28;20110;-71
2024/02/14 01:14:55;;;;;;;7.30;2.15;;;5.70;99.90;;;;;;5034225;28;20451;-71
2024/02/14 01:17:21;;;;;;;2.72;1.73;;;5.80;99.90;;;;;;5026133;28;20033;-71
2024/02/14 01:19:47;;;;;;;2.67;1.67;;;5.80;99.90;;;;;;5024988;28;20104;-71
2024/02/14 01:22:16;;;;;;;10.90;1.75;;;5.90;99.90;;;;;;5040305;28;20186;-71
2024/02/14 01:24:45;;;;;;;2.15;1.52;;;5.90;99.90;;;;;;5043325;28;20039;-71
2024/02/14 01:27:10;;;;;;;3.38;1.95;;;5.90;99.90;;;;;;5029761;28;20017;-71
2024/02/14 01:29:39;;;;;;;3.67;1.63;;;6.00;99.90;;;;;;5031331;28;20048;-71
2024/02/14 01:32:06;;;;;;;5.32;1.92;;;6.00;99.90;;;;;;5037328;28;20049;-72
2024/02/14 01:34:32;;;;;;;6.53;2.40;;;6.00;99.90;;;;;;5050530;22;20036;-69
2024/02/14 01:36:58;;;;;;;1.83;1.20;;;6.00;99.90;;;;;;5049078;28;20385;-69
2024/02/14 01:39:24;;;;;;;2.72;1.30;;;6.00;99.90;;;;;;5039155;28;20040;-70
2024/02/14 01:41:49;;;;;;;3.15;1.65;;;6.10;99.90;;;;;;5029324;28;20737;-70
2024/02/14 01:44:16;;;;;;;4.60;1.80;;;6.10;99.90;;;;;;5047003;28;20032;-70
2024/02/14 01:46:45;;;;;;;2.08;1.10;;;6.20;99.90;;;;;;5049506;28;20512;-70
2024/02/14 01:49:12;;;;;;;7.55;1.60;;;6.20;99.90;;;;;;5049761;28;20063;-70
2024/02/14 01:51:39;;;;;;;2.40;1.30;;;6.20;99.90;;;;;;5033143;28;20029;-70
2024/02/14 01:54:06;;;;;;;4.28;1.38;;;6.20;99.90;;;;;;5067082;28;20102;-70
2024/02/14 01:56:32;;;;;;;4.72;1.65;;;6.20;99.90;;;;;;5053217;28;20029;-70
2024/02/14 01:59:00;;;;;;;2.10;1.50;;;6.20;99.90;;;;;;5052269;28;20036;-70
2024/02/14 02:01:26;;;;;;;3.05;1.30;;;6.20;99.90;;;;;;5044587;28;20139;-70
2024/02/14 02:03:53;;;;;;;4.20;1.33;;;6.20;99.90;;;;;;5030067;28;20029;-70
2024/02/14 02:06:19;;;;;;;3.90;1.75;;;6.20;99.90;;;;;;5060941;28;20021;-71
2024/02/14 02:08:45;;;;;;;2.30;1.55;;;6.20;99.90;;;;;;5052410;28;20020;-70
2024/02/14 02:11:11;;;;;;;4.40;1.63;;;6.20;99.90;;;;;;5045127;28;20480;-69
2024/02/14 02:13:38;;;;;;;6.15;1.98;;;6.20;99.90;;;;;;5052342;28;20114;-69
2024/02/14 02:16:05;;;;;;;3.80;1.40;;;6.20;99.90;;;;;;5051217;28;20033;-70
2024/02/14 02:18:34;;;;;;;3.63;1.75;;;6.20;99.90;;;;;;5065819;28;20044;-70
2024/02/14 02:21:03;;;;;;;3.05;1.90;;;6.20;99.90;;;;;;5048646;28;20056;-70
2024/02/14 02:23:30;;;;;;;4.68;2.75;;;6.20;99.90;;;;;;5038171;28;20112;-70
2024/02/14 02:25:56;;;;;;;3.38;1.60;;;6.20;99.90;;;;;;5032307;28;20037;-70
2024/02/14 02:28:22;;;;;;;4.80;2.17;;;6.20;99.90;;;;;;5051496;28;20036;-70
2024/02/14 02:30:48;;;;;;;4.03;1.58;;;6.20;99.90;;;;;;5052476;28;20029;-70
2024/02/14 02:33:13;;;;;;;4.15;2.25;;;6.20;99.90;;;;;;5030265;28;20091;-70
2024/02/14 02:35:44;;;;;;;2.20;1.50;;;6.20;99.90;;;;;;5032423;28;20029;-70
2024/02/14 02:38:11;;;;;;;6.88;2.65;;;6.20;99.90;;;;;;5040886;28;20731;-70
2024/02/14 02:40:37;;;;;;;5.25;2.60;;;6.10;99.90;;;;;;5045445;28;20449;-70
2024/02/14 02:43:03;;;;;;;12.15;3.95;;;6.10;99.90;;;;;;5036785;28;20037;-70
2024/02/14 02:45:29;;;;;;;4.00;2.13;;;6.20;99.90;;;;;;5023847;28;20049;-70
2024/02/14 02:47:56;;;;;;;2.75;1.80;;;6.20;99.90;;;;;;5037354;28;20501;-70
2024/02/14 02:50:21;;;;;;;6.07;1.65;;;6.20;99.90;;;;;;5053164;28;20025;-70
2024/02/14 02:52:48;;;;;;;4.75;2.03;;;6.30;99.90;;;;;;5034303;28;20068;-70
2024/02/14 02:55:17;;;;;;;3.60;1.77;;;6.30;99.90;;;;;;5050975;28;20043;-70
2024/02/14 02:57:45;;;;;;;10.05;2.88;;;6.40;99.90;;;;;;5051522;28;20525;-70
2024/02/14 03:00:12;;;;;;;7.85;1.42;;;6.40;99.90;;;;;;5049417;28;20056;-70
2024/02/14 03:02:44;;;;;;;2.90;1.58;;;6.50;99.90;;;;;;5039749;28;20078;-70
2024/02/14 03:05:19;;;;;;;;;;;6.50;99.90;;;;;;5067017;28;20069;-70
2024/02/14 03:07:46;;;;;;;9.23;2.05;;;6.50;99.90;;;;;;5066471;28;19908;-71
2024/02/14 03:10:17;;;;;;;5.20;1.65;;;6.60;99.90;;;;;;5034416;28;20499;-70
2024/02/14 03:12:47;;;;;;;3.88;1.75;;;6.60;99.90;;;;;;5042437;28;20033;-70
2024/02/14 03:15:13;;;;;;;3.92;2.20;;;6.70;99.90;;;;;;5066927;28;20540;-70
2024/02/14 03:17:39;;;;;;;4.30;2.15;;;6.70;99.90;;;;;;5034792;28;20024;-70
2024/02/14 03:20:10;;;;;;;2.63;1.52;;;6.70;99.90;;;;;;5039706;28;20034;-70
2024/02/14 03:22:37;;;;;;;3.65;1.75;;;6.70;99.90;;;;;;5052107;28;20537;-70
2024/02/14 03:25:03;;;;;;;3.10;1.65;;;6.80;99.90;;;;;;5050398;28;20036;-70
2024/02/14 03:27:31;;;;;;;2.83;1.60;;;6.80;99.90;;;;;;5031286;28;20021;-70
2024/02/14 03:29:58;;;;;;;5.32;2.17;;;6.80;99.90;;;;;;5049649;28;20037;-70
2024/02/14 03:32:24;;;;;;;5.95;1.98;;;6.90;99.90;;;;;;5043622;28;20028;-70
2024/02/14 03:34:49;;;;;;;4.50;2.10;;;6.90;99.90;;;;;;5049772;28;20040;-70
2024/02/14 03:37:15;;;;;;;4.85;1.67;;;6.90;99.90;;;;;;5033730;28;20119;-70
2024/02/14 03:39:41;;;;;;;9.30;3.60;;;6.90;99.90;;;;;;5050061;28;20025;-71
2024/02/14 03:42:07;;;;;;;4.82;2.90;;;6.90;99.90;;;;;;5033083;28;20044;-70
2024/02/14 03:44:33;;;;;;;4.47;2.20;;;7.00;99.90;;;;;;5036970;28;20028;-70
2024/02/14 03:47:00;;;;;;;3.40;1.55;;;6.90;99.90;;;;;;5050292;28;20477;-71
2024/02/14 03:49:26;;;;;;;7.07;2.88;;;6.90;99.90;;;;;;5050166;28;20372;-70
2024/02/14 03:51:54;;;;;;;4.30;2.25;;;6.90;99.90;;;;;;5052097;28;20527;-70
2024/02/14 03:54:20;;;;;;;2.38;1.45;;;6.90;99.90;;;;;;5041646;28;20048;-70
2024/02/14 03:56:46;;;;;;;3.85;2.08;;;6.90;99.90;;;;;;5041837;28;20031;-70
2024/02/14 03:59:11;;;;;;;5.07;2.30;;;6.90;99.90;;;;;;5035282;28;20034;-71
2024/02/14 04:01:38;;;;;;;3.67;1.65;;;7.00;99.90;;;;;;5051854;28;20029;-70
2024/02/14 04:04:04;;;;;;;2.67;1.85;;;7.00;99.90;;;;;;5049589;28;20090;-70
2024/02/14 04:06:31;;;;;;;10.50;2.00;;;6.90;99.90;;;;;;5038989;28;20029;-70
2024/02/14 04:08:58;;;;;;;3.25;1.50;;;7.00;99.90;;;;;;5040647;28;20547;-70
2024/02/14 04:11:24;;;;;;;10.13;1.83;;;6.90;99.90;;;;;;5023467;28;20063;-70
2024/02/14 04:13:50;;;;;;;8.15;2.25;;;6.90;99.90;;;;;;5044914;28;20065;-70
2024/02/14 04:16:20;;;;;;;3.40;1.80;;;6.90;99.90;;;;;;5043111;28;20104;-70
2024/02/14 04:18:46;;;;;;;5.65;2.65;;;7.00;99.90;;;;;;5049735;28;20098;-70
2024/02/14 04:21:12;;;;;;;7.95;3.33;;;7.00;99.90;;;;;;5051274;28;20029;-71
2024/02/14 04:23:37;;;;;;;2.88;1.65;;;7.00;99.90;;;;;;5049303;28;20085;-70
2024/02/14 04:26:03;;;;;;;2.67;1.98;;;7.00;99.90;;;;;;5032967;28;20117;-70
2024/02/14 04:28:29;;;;;;;8.15;1.73;;;7.00;99.90;;;;;;5043618;28;20060;-71
2024/02/14 04:30:56;;;;;;;6.57;1.80;;;6.90;99.90;;;;;;5049317;28;20075;-71
2024/02/14 04:33:22;;;;;;;4.85;2.40;;;6.90;99.90;;;;;;5061063;28;20032;-70
2024/02/14 04:35:47;;;;;;;5.82;2.03;;;6.90;99.90;;;;;;5045178;28;20033;-71
2024/02/14 04:38:13;;;;;;;7.10;1.63;;;6.80;99.90;;;;;;5041003;28;20079;-71
2024/02/14 04:40:39;;;;;;;5.35;2.55;;;6.90;99.90;;;;;;5036401;28;20025;-70
2024/02/14 04:43:05;;;;;;;4.82;2.00;;;6.80;99.90;;;;;;5070807;28;20120;-71
2024/02/14 04:45:31;;;;;;;5.05;2.20;;;6.80;99.90;;;;;;5040995;28;20028;-70
2024/02/14 04:47:57;;;;;;;4.00;1.77;;;6.90;99.90;;;;;;5035850;28;20025;-71
2024/02/14 04:50:22;;;;;;;4.53;1.83;;;6.90;99.90;;;;;;5039157;28;20048;-71
2024/02/14 04:52:48;;;;;;;2.22;1.58;;;6.90;99.90;;;;;;5035353;28;20029;-71
2024/02/14 04:55:14;;;;;;;10.07;1.73;;;6.90;99.90;;;;;;5047008;28;20032;-71
2024/02/14 04:57:40;;;;;;;2.40;1.45;;;6.90;99.90;;;;;;5036243;28;20448;-70
2024/02/14 05:00:08;;;;;;;4.07;1.90;;;6.90;99.90;;;;;;5046779;28;20079;-70
2024/02/14 05:02:35;;;;;;;4.00;1.58;;;6.90;99.90;;;;;;5033432;28;20039;-71
2024/02/14 05:05:01;;;;;;;2.35;1.20;;;6.90;99.90;;;;;;5049886;28;20040;-71
2024/02/14 05:07:27;;;;;;;2.85;1.60;;;6.90;99.90;;;;;;5047101;28;20018;-71
2024/02/14 05:09:55;;;;;;;13.75;2.08;;;6.90;99.90;;;;;;5047626;28;20557;-70
2024/02/14 05:12:21;;;;;;;12.20;1.92;;;6.90;99.90;;;;;;5031149;28;20018;-70
2024/02/14 05:14:48;;;;;;;2.80;1.17;;;6.90;99.90;;;;;;5043968;28;20117;-70
2024/02/14 05:17:14;;;;;;;8.95;1.85;;;6.90;99.90;;;;;;5042342;28;20017;-70
2024/02/14 05:19:43;;;;;;;3.10;1.83;;;7.00;99.90;;;;;;5053222;28;20079;-71
2024/02/14 05:22:08;;;;;;;6.65;2.08;;;7.00;99.90;;;;;;5045108;28;20029;-72
2024/02/14 05:24:37;;;;;;;6.03;2.47;;;7.00;99.90;;;;;;5035454;28;20116;-72
2024/02/14 05:27:06;;;;;;;7.28;3.33;;;7.00;99.90;;;;;;5054124;28;20028;-72
2024/02/14 05:29:33;;;;;;;4.65;1.88;;;7.10;99.90;;;;;;5048785;28;20421;-72
2024/02/14 05:31:58;;;;;;;3.75;1.42;;;7.10;99.90;;;;;;5046270;28;20060;-72
2024/02/14 05:34:24;;;;;;;5.15;1.70;;;7.10;99.90;;;;;;5046801;28;20052;-72
2024/02/14 05:36:51;;;;;;;12.57;2.20;;;7.10;99.90;;;;;;5045087;28;20072;-72
2024/02/14 05:39:17;;;;;;;4.10;2.05;;;7.10;99.90;;;;;;5051278;28;20068;-72
2024/02/14 05:41:43;;;;;;;7.13;3.20;;;7.10;99.90;;;;;;5047080;28;20624;-72
2024/02/14 05:44:09;;;;;;;10.73;2.17;;;7.10;99.90;;;;;;5049827;28;20048;-72
2024/02/14 05:46:34;;;;;;;4.78;1.90;;;7.10;99.90;;;;;;5049485;28;20436;-72
2024/02/14 05:49:00;;;;;;;6.28;2.17;;;7.10;99.90;;;;;;5049637;28;20029;-72
2024/02/14 05:51:26;;;;;;;7.15;1.80;;;7.20;99.90;;;;;;5052495;28;20461;-72
2024/02/14 05:53:52;;;;;;;4.53;2.05;;;7.20;99.90;;;;;;5045444;28;20120;-72
2024/02/14 05:56:17;;;;;;;3.00;1.40;;;7.30;99.90;;;;;;5050230;28;20037;-71
2024/02/14 05:58:43;;;;;;;2.95;1.58;;;7.30;99.90;;;;;;5040213;28;20610;-71
2024/02/14 06:01:09;;;;;;;4.78;1.30;;;7.40;99.90;;;;;;5052406;28;20033;-72
2024/02/14 06:03:35;;;;;;;5.93;2.20;;;7.40;99.90;;;;;;5047386;28;20079;-72
2024/02/14 06:06:01;;;;;;;4.13;2.05;;;7.40;99.90;;;;;;5024248;28;20112;-72
2024/02/14 06:08:26;;;;;;;5.35;2.10;;;7.40;99.90;;;;;;5053438;28;20037;-72
2024/02/14 06:10:53;;;;;;;4.45;1.65;;;7.50;99.90;;;;;;5053475;28;20032;-72
2024/02/14 06:13:19;;;;;;;9.07;2.53;;;7.50;99.90;;;;;;5048447;28;20447;-72
2024/02/14 06:15:45;;;;;;;3.00;1.17;;;7.60;99.90;;;;;;5051052;28;20078;-72
2024/02/14 06:18:11;;;;;;;3.40;1.30;;;7.60;99.90;;;;;;5049097;28;20106;-72
2024/02/14 06:20:39;;;;;;;4.85;1.30;;;7.70;99.90;;;;;;5068505;28;20055;-72
2024/02/14 06:23:04;;;;;;;5.35;1.40;;;7.80;99.90;;;;;;5042600;28;20550;-71
2024/02/14 06:25:30;;;;;;;10.13;1.15;;;7.80;99.90;;;;;;5037219;28;20033;-71
2024/02/14 06:27:56;;;;;;;3.95;1.55;;;7.80;99.90;;;;;;5047015;28;20529;-72
2024/02/14 06:30:22;;;;;;;2.50;1.23;;;7.70;99.90;;;;;;5051788;28;20076;-75
2024/02/14 06:32:47;;;;;;;7.88;2.38;;;7.70;99.90;;;;;;5053608;28;20028;-76
2024/02/14 06:35:14;;;;;;;4.53;1.77;;;7.70;99.90;;;;;;5052486;28;20064;-74
2024/02/14 06:37:40;;;;;;;3.90;2.05;;;7.60;99.90;;;;;;5047088;28;20121;-71
2024/02/14 06:40:08;;;;;;;6.40;2.60;;;7.60;99.90;;;;;;5043364;28;20565;-70
2024/02/14 06:42:34;;;;;;;3.28;1.80;;;7.60;99.90;;;;;;5045674;28;20105;-71
2024/02/14 06:45:00;;;;;;;3.10;1.55;;;7.60;99.90;;;;;;5050892;28;20036;-70
2024/02/14 06:47:29;;;;;;;3.10;1.48;;;7.50;99.90;;;;;;5060310;28;20029;-71
2024/02/14 06:49:56;;;;;;;4.25;2.03;;;7.60;99.90;;;;;;5036580;28;20029;-71
2024/02/14 06:52:22;;;;;;;2.60;1.63;;;7.60;99.90;;;;;;5048430;28;20109;-71
2024/02/14 06:54:48;;;;;;;6.47;2.20;;;7.60;99.90;;;;;;5038768;28;20112;-72
2024/02/14 06:57:14;;;;;;;2.55;1.35;;;7.60;99.90;;;;;;5042406;28;20063;-72
2024/02/14 06:59:40;;;;;;;4.43;1.70;;;7.60;99.90;;;;;;5050607;28;20025;-71
2024/02/14 07:02:06;;;;;;;4.68;1.55;;;7.70;99.90;;;;;;5050466;28;20024;-72
2024/02/14 07:04:32;;;;;;;8.23;1.27;;;7.70;99.90;;;;;;5042432;28;20029;-72
2024/02/14 07:06:58;;;;;;;4.35;1.65;;;7.80;99.90;;;;;;5050841;28;20087;-72
2024/02/14 07:09:25;;;;;;;2.40;1.60;;;7.80;99.90;;;;;;5050573;28;20021;-71
2024/02/14 07:11:53;;;;;;;3.00;1.88;;;7.80;99.90;;;;;;5034998;28;20385;-71
2024/02/14 07:14:19;;;;;;;4.10;1.70;;;7.80;99.90;;;;;;5051294;28;20036;-71
2024/02/14 07:16:45;;;;;;;5.88;1.65;;;7.90;99.90;;;;;;5062560;28;20525;-71
2024/02/14 07:19:11;;;;;;;2.70;1.52;;;7.90;99.90;;;;;;5043215;28;20037;-71
2024/02/14 07:21:37;;;;;;;6.60;2.75;;;7.80;99.90;;;;;;5053123;28;20029;-72
2024/02/14 07:24:05;;;;;;;7.45;1.45;;;7.80;99.90;;;;;;5043117;28;20128;-71
2024/02/14 07:26:31;;;;;;;3.17;1.58;;;7.80;99.90;;;;;;5031761;28;20718;-71
2024/02/14 07:28:56;;;;;;;9.65;2.33;;;7.80;99.90;;;;;;5045384;28;20041;-72
2024/02/14 07:31:22;;;;;;;2.55;1.58;;;8.10;99.90;;;;;;5052691;28;20084;-71
2024/02/14 07:33:49;;;;;;;2.53;1.50;;;8.30;99.90;;;;;;5059445;23;20052;-71
2024/02/14 07:36:15;;;;;;;2.53;1.70;;;8.20;99.90;;;;;;5050584;28;20032;-72
2024/02/14 07:38:42;;;;;;;4.38;1.73;;;8.10;99.90;;;;;;5044777;28;20035;-71
2024/02/14 07:41:08;;;;;;;2.30;1.02;;;8.00;99.90;;;;;;5052485;28;20021;-71
2024/02/14 07:43:34;;;;;;;2.28;1.08;;;8.00;99.90;;;;;;5049814;28;20397;-72
2024/02/14 07:46:00;;;;;;;8.38;0.90;;;8.00;99.90;;;;;;5036030;28;20037;-72
2024/02/14 07:48:26;;;;;;;6.45;1.60;;;8.20;99.90;;;;;;5037577;28;20033;-72
2024/02/14 07:50:52;;;;;;;11.73;1.98;;;8.20;99.90;;;;;;5040494;28;20029;-72
2024/02/14 07:53:18;;;;;;;2.40;1.38;;;8.30;99.90;;;;;;5047762;28;20377;-71
2024/02/14 07:55:43;;;;;;;1.90;1.17;;;8.20;99.90;;;;;;5051939;28;20578;-71
2024/02/14 07:58:09;;;;;;;1.67;0.98;;;8.20;99.90;;;;;;5050385;28;20361;-71
2024/02/14 08:00:35;;;;;;;3.80;2.13;;;8.20;99.90;;;;;;5067228;28;20029;-61
2024/02/14 08:03:03;;;;;;;2.30;1.27;;;8.20;99.90;;;;;;5050944;28;20036;-58
2024/02/14 08:05:29;;;;;;;6.80;1.80;;;8.30;99.90;;;;;;5032194;28;20068;-57
2024/02/14 08:07:55;;;;;;;5.32;2.03;;;8.30;99.90;;;;;;5033872;28;20456;-57
2024/02/14 08:10:20;;;;;;;10.80;1.40;;;8.30;99.90;;;;;;5034533;28;20109;-58
2024/02/14 08:12:47;;;;;;;10.63;2.08;;;8.40;99.90;;;;;;5032428;28;20406;-58
2024/02/14 08:15:13;;;;;;;12.55;1.63;;;8.50;99.90;;;;;;5034789;28;20472;-56
2024/02/14 08:17:39;;;;;;;5.55;1.52;;;8.60;99.90;;;;;;5054200;28;20082;-55
2024/02/14 08:20:05;;;;;;;1.92;1.27;;;8.70;99.90;;;;;;5048636;28;20029;-57
2024/02/14 08:22:31;;;;;;;7.43;1.20;;;8.70;99.90;;;;;;5050522;28;20032;-59
2024/02/14 08:24:58;;;;;;;1.83;1.17;;;8.80;99.90;;;;;;5056800;28;20536;-54
2024/02/14 08:27:25;;;;;;;6.13;1.17;;;8.90;99.90;;;;;;5045619;28;20021;-54
2024/02/14 08:29:51;;;;;;;1.73;0.93;;;9.00;99.90;;;;;;5044964;28;20524;-56
2024/02/14 08:32:17;;;;;;;2.38;1.52;;;8.90;99.90;;;;;;5036839;28;20029;-56
2024/02/14 08:34:43;;;;;;;4.45;1.30;;;8.90;99.90;;;;;;5035998;28;20033;-56
2024/02/14 08:37:10;;;;;;;2.88;1.45;;;9.00;99.90;;;;;;5032350;28;20021;-56
2024/02/14 08:39:36;;;;;;;3.38;1.15;;;9.10;99.90;;;;;;5045895;28;20068;-57
2024/02/14 08:42:07;;;;;;;2.33;1.33;;;9.10;99.90;;;;;;5035527;28;20033;-57
2024/02/14 08:44:34;;;;;;;;;;;9.20;99.90;;;;;;5042253;28;20039;-57
2024/02/14 08:47:00;;;;;;;1.20;0.82;;;9.30;99.90;;;;;;5033310;28;19913;-57
2024/02/14 08:49:26;;;;;;;2.45;1.38;;;9.30;99.90;;;;;;5036809;28;20030;-56
2024/02/14 08:51:51;;;;;;;2.13;1.17;;;9.20;99.90;;;;;;5036745;28;20104;-53
2024/02/14 08:54:17;;;;;;;1.80;0.77;;;9.30;99.90;;;;;;5047386;28;20033;-71
2024/02/14 08:56:43;;;;;;;2.88;1.13;;;9.30;99.90;;;;;;5032795;28;20037;-71
2024/02/14 08:59:10;;;;;;;0.65;0.55;;;9.30;99.90;;;;;;5047202;28;20083;-71
2024/02/14 09:01:36;;;;;;;5.00;1.35;;;9.30;99.90;;;;;;5035738;28;20074;-71
2024/02/14 09:04:02;;;;;;;1.98;1.10;;;9.40;99.90;;;;;;5041569;28;20033;-71
2024/02/14 09:06:28;;;;;;;3.67;1.35;;;9.50;99.90;;;;;;5032811;28;20033;-71
2024/02/14 09:08:56;;;;;;;4.28;1.67;;;9.50;99.90;;;;;;5043942;28;20086;-71
2024/02/14 09:11:22;;;;;;;9.32;1.85;;;9.50;99.90;;;;;;5036016;28;20539;-71
2024/02/14 09:13:50;;;;;;;3.55;1.00;;;9.60;99.90;;;;;;5034335;28;20040;-70
2024/02/14 09:16:17;;;;;;;2.75;1.10;;;9.60;99.90;;;;;;5038272;28;20036;-71
2024/02/14 09:18:45;;;;;;;3.75;1.23;;;9.70;99.90;;;;;;5050504;28;20036;-71
2024/02/14 09:21:11;;;;;;;7.90;1.58;;;9.70;99.90;;;;;;5038305;28;20037;-70
2024/02/14 09:23:39;;;;;;;1.95;1.05;;;9.60;99.90;;;;;;5044508;28;20029;-70
2024/02/14 09:26:06;;;;;;;5.20;1.90;;;9.70;99.90;;;;;;5046610;28;20059;-70
2024/02/14 09:28:33;;;;;;;2.40;1.08;;;9.80;99.90;;;;;;5050908;28;20029;-71
2024/02/14 09:30:59;;;;;;;3.55;1.00;;;9.90;99.90;;;;;;5063211;28;20102;-71
2024/02/14 09:33:24;;;;;;;2.72;1.65;;;9.80;99.90;;;;;;5040192;28;20473;-70
2024/02/14 09:35:51;;;;;;;2.30;0.75;;;9.90;99.90;;;;;;5048615;28;20076;-71
2024/02/14 09:38:17;;;;;;;1.90;0.82;;;9.90;99.90;;;;;;5037791;28;20071;-71
2024/02/14 09:40:43;;;;;;;2.10;1.10;;;10.00;99.90;;;;;;5037456;28;20034;-71
2024/02/14 09:43:40;;;;;;;1.83;1.00;;;9.90;99.90;;;;;;5039371;28;20037;-71
2024/02/14 09:46:07;;;;;;;2.35;1.33;;;10.00;99.90;;;;;;5029731;28;20389;-71
2024/02/14 09:48:35;;;;;;;1.80;1.08;;;10.10;99.90;;;;;;5044327;28;20025;-71
2024/02/14 09:51:02;;;;;;;5.82;2.10;;;10.20;99.90;;;;;;5045974;28;20597;-71
2024/02/14 09:53:30;;;;;;;5.07;1.00;;;10.20;99.90;;;;;;5044513;28;20029;-71
2024/02/14 09:55:57;;;;;;;4.95;1.00;;;10.30;99.90;;;;;;5045398;28;20033;-70
2024/02/14 09:58:23;;;;;;;3.97;1.63;;;10.30;99.90;;;;;;5033730;28;20024;-71
2024/02/14 10:00:50;;;;;;;3.30;1.48;;;10.20;99.90;;;;;;5034258;28;20076;-71
2024/02/14 10:03:16;;;;;;;2.30;1.67;;;10.20;99.90;;;;;;5046133;28;20025;-71
2024/02/14 10:05:42;;;;;;;6.80;1.27;;;10.20;99.90;;;;;;5039313;28;20025;-71
2024/02/14 10:08:08;;;;;;;3.65;1.20;;;10.20;99.90;;;;;;5046034;28;20508;-71
2024/02/14 10:10:35;;;;;;;3.45;1.45;;;10.10;99.90;;;;;;5041565;28;20025;-71
2024/02/14 10:13:04;;;;;;;3.17;1.40;;;10.00;99.90;;;;;;5034760;28;20441;-71
2024/02/14 10:15:30;;;;;;;4.40;1.38;;;10.00;99.90;;;;;;5033234;28;20413;-71
2024/02/14 10:17:59;;;;;;;2.85;1.38;;;10.00;99.90;;;;;;5040173;28;20067;-71
2024/02/14 10:20:26;;;;;;;1.08;0.88;;;10.00;99.90;;;;;;5041806;28;20033;-71
2024/02/14 10:23:00;;;;;;;3.28;1.20;;;10.00;99.90;;;;;;5031163;28;20060;-71
2024/02/14 10:25:26;;;;;;;2.88;1.38;;;9.90;99.90;;;;;;5046866;28;20056;-71
2024/02/14 10:27:51;;;;;;;4.53;0.90;;;9.90;99.90;;;;;;5032367;28;20061;-71
2024/02/14 10:30:21;;;;;;;0.68;0.68;;;9.90;99.90;;;;;;5048430;28;20033;-71
2024/02/14 10:32:48;;;;;;;3.47;1.45;;;10.00;99.90;;;;;;5036909;28;20036;-71
2024/02/14 10:35:15;;;;;;;2.95;0.90;;;10.00;99.90;;;;;;5031615;28;20033;-71
2024/02/14 10:37:42;;;;;;;86.00;14.70;;;10.00;99.90;;;;;;5036629;28;20025;-71
2024/02/14 10:40:08;;;;;;;46.72;8.20;;;10.20;99.90;;;;;;5050875;28;20044;-71
2024/02/14 10:42:35;;;;;;;82.18;14.70;;;10.20;99.90;;;;;;5051465;28;20422;-71
2024/02/14 10:45:02;;;;;;;2.97;1.63;;;10.30;99.90;;;;;;5039412;28;20050;-71
2024/02/14 10:47:35;;;;;;;8.55;1.98;;;10.30;99.90;;;;;;5045445;28;20029;-71
2024/02/14 10:50:05;;;;;;;3.40;1.75;;;10.40;99.90;;;;;;5034746;28;20075;-71
2024/02/14 10:52:34;;;;;;;6.13;1.83;;;10.40;99.90;;;;;;5034628;28;20026;-71
2024/02/14 10:55:03;;;;;;;11.73;1.60;;;10.40;99.90;;;;;;5045238;28;20025;-71
2024/02/14 10:57:32;;;;;;;2.78;1.20;;;10.50;99.90;;;;;;5039857;28;20060;-70
2024/02/14 11:00:09;;;;;;;1.27;0.77;;;10.60;99.90;;;;;;5027418;28;20025;-70
2024/02/14 11:02:36;;;;;;;2.05;0.80;;;10.70;99.90;;;;;;5031042;28;20029;-70
2024/02/14 11:05:03;;;;;;;1.88;0.68;;;10.80;99.90;;;;;;5049836;28;20029;-70
2024/02/14 11:07:29;;;;;;;1.98;1.38;;;10.70;99.90;;;;;;5031674;28;20058;-70
2024/02/14 11:10:22;;;;;;;1.02;0.70;;;10.80;99.90;;;;;;5045378;28;20050;-70
2024/02/14 11:12:50;;;;;;;2.25;0.57;;;10.70;99.90;;;;;;5033351;28;20056;-71
2024/02/14 11:15:25;;;;;;;3.33;1.00;;;10.80;99.90;;;;;;5044054;28;20038;-71
2024/02/14 11:17:54;;;;;;;1.52;0.52;;;10.70;99.90;;;;;;5033447;28;20104;-71
2024/02/14 11:20:35;;;;;;;4.95;0.85;;;10.70;99.90;;;;;;5041745;28;20040;-71
2024/02/14 11:23:06;;;;;;;2.10;0.70;;;10.70;99.90;;;;;;5034576;28;20033;-72
2024/02/14 11:25:36;;;;;;;;;;;10.80;99.90;;;;;;5031939;28;20064;-71
2024/02/14 11:28:14;;;;;;;2.60;0.80;;;10.80;99.90;;;;;;5046247;28;19917;-71
2024/02/14 11:30:42;;;;;;;5.32;1.27;;;10.80;99.90;;;;;;5038852;28;20060;-71
2024/02/14 11:33:23;;;;;;;4.40;1.67;;;10.80;99.90;;;;;;5043642;28;20028;-72
2024/02/14 11:35:53;;;;;;;;;;;10.70;99.90;;;;;;5048495;28;20025;-72
2024/02/14 11:38:20;;;;;;;2.53;1.30;;;10.80;99.90;;;;;;5022969;28;19920;-72
2024/02/14 11:40:46;;;;;;;3.63;1.20;;;10.90;99.90;;;;;;5038597;28;20021;-72
2024/02/14 11:43:17;;;;;;;2.10;1.13;;;10.90;99.90;;;;;;5035715;28;20363;-72
2024/02/14 11:45:45;;;;;;;;;;;10.90;99.90;;;;;;5039815;28;20055;-72
2024/02/14 11:48:16;;;;;;;3.60;1.10;;;10.90;99.90;;;;;;5040628;28;19960;-72
2024/02/14 11:50:43;;;;;;;;;;;11.00;99.90;;;;;;5032001;28;20112;-71
2024/02/14 11:53:16;;;;;;;4.07;1.27;;;11.00;99.90;;;;;;5028840;28;19963;-71
2024/02/14 11:55:42;;;;;;;2.13;1.17;;;11.00;99.90;;;;;;5032251;28;20043;-71
2024/02/14 11:58:12;;;;;;;6.80;1.30;;;11.00;99.90;;;;;;5048343;28;20067;-71
2024/02/14 12:00:46;;;;;;;2.55;1.10;;;10.80;99.90;;;;;;5030983;28;20075;-71
2024/02/14 12:03:26;;;;;;;1.08;0.82;;;10.90;99.90;;;;;;5029495;28;20075;-71
2024/02/14 12:05:53;;;;;;;1.92;0.88;;;10.80;99.90;;;;;;5031792;28;20033;-71
2024/02/14 12:08:20;;;;;;;3.30;1.42;;;10.80;99.90;;;;;;5033983;28;20032;-72
2024/02/14 12:10:47;;;;;;;1.30;0.88;;;10.90;99.90;;;;;;5045655;28;20122;-71
2024/02/14 12:13:14;;;;;;;0.88;0.63;;;11.10;99.90;;;;;;5041700;28;20024;-71
2024/02/14 12:15:48;;;;;;;1.85;0.90;;;11.50;99.90;;;;;;5038347;28;20489;-72
2024/02/14 12:18:15;;;;;;;1.33;0.68;;;12.30;99.90;;;;;;5021762;28;20033;-72
2024/02/14 12:20:43;;;;;;;1.77;0.60;;;12.80;99.90;;;;;;5041463;28;20071;-72
2024/02/14 12:23:18;;;;;;;1.58;0.82;;;13.00;99.90;;;;;;5045435;28;20489;-72
2024/02/14 12:25:46;;;;;;;4.30;1.00;;;12.90;99.90;;;;;;5035768;28;20468;-72
2024/02/14 12:28:19;;;;;;;3.17;0.77;;;13.20;99.90;;;;;;5046408;28;20555;-72
2024/02/14 12:30:55;;;;;;;2.22;0.98;;;13.10;99.90;;;;;;5043324;28;20541;-72
2024/02/14 12:33:25;;;;;;;3.63;1.30;;;13.00;99.90;;;;;;5044542;28;20025;-72
2024/02/14 12:35:54;;;;;;;1.55;1.00;;;12.90;99.90;;;;;;5030655;28;20041;-72
2024/02/14 12:38:22;;;;;;;0.88;0.60;;;12.40;99.90;;;;;;5049203;28;20029;-71
2024/02/14 12:40:49;;;;;;;1.25;0.85;;;12.40;99.90;;;;;;5047042;28;20025;-71
2024/02/14 12:43:16;;;;;;;1.98;0.88;;;12.50;99.90;;;;;;5046732;28;20029;-71
2024/02/14 12:45:42;;;;;;;4.50;0.60;;;12.00;99.90;;;;;;5042345;28;20478;-71
2024/02/14 12:48:11;;;;;;;1.75;0.80;;;12.00;99.90;;;;;;5043739;28;20528;-71
2024/02/14 12:50:38;;;;;;;1.50;0.82;;;12.10;99.90;;;;;;5037393;28;20029;-71
2024/02/14 12:53:05;;;;;;;1.10;0.60;;;12.10;99.90;;;;;;5044950;28;20083;-73
2024/02/14 12:55:30;;;;;;;2.22;0.80;;;12.00;99.90;;;;;;5037607;28;20026;-72